Lewis, Wisconsin
Current Conditions -  °F | °C
As of 8:55 AM on Wednesday 22 Oct 2014 (Local Time) from KRZN Reporting Station
Clear Clear  
Wind Chill: 35°   Ceiling: Unl
Heat Index: 42°   Visibility: 10mi
Dew Point: 35°   Wind: 14mph
Humidity: 76%   Direction: 160°SSE
Pressure: 30.22"   Gusts: 20mph
Location:  45.71°N, 92.4°W
Report Text: KRZN 221355Z AUTO 16012G17KT 10SM CLR 06/02 A3022 RMK AO2 T00570018
Loading
Personal Weather Stations






























Interactive Weather Map
Tropical Storm Tracking
New forecast layout! Learn more

10-Day Weather Forecast

Advertisements
Track Severe Weather on mobile